Estrella La Manana — EA5263 — position and weather

sailwx.info

Track history (hours):
 
Tides and Currents Weather Stations Pressure Air Temp Water Temp Dewpoint Dewpoint Depression Visibility Wind Speed Wind Dir Waves Ship Positions

Estrella La Manana

Last reported at 2017-Nov-16 14:56 UTC. Time now 2017-Nov-21 13:54 UTC.
Position N 43°49' W 004°56'.

Length 16 m.

Type: Fishing. MMSI: 224027890.

Date/timePositionNaut miles runAvg speedWind from/ knotsBaromVisibWave heightAir tempDewpointWater temp
2017-Nov-16 14:56N 43°49' W 004°56'0 1.1
2017-Nov-16 14:30N 43°48' W 004°55'1 0.7
2017-Nov-16 13:37N 43°48' W 004°54'0 0.2
2017-Nov-16 13:29N 43°48' W 004°54'3 2.4
2017-Nov-16 12:15N 43°45' W 004°53'26 1.0
2017-Nov-15 10:27N 43°29' W 004°25'3 5.6
2017-Nov-15 09:56N 43°30' W 004°22'12 0.9
2017-Nov-14 21:12N 43°34' W 004°06'2 7.6
2017-Nov-14 20:53N 43°35' W 004°03'0 0.2
2017-Nov-14 20:30N 43°35' W 004°03'  
Track history (hours):
 
Tides and Currents Weather Stations Pressure Air Temp Water Temp Dewpoint Dewpoint Depression Visibility Wind Speed Wind Dir Waves Ship Positions

Estrella La Manana

Last reported at 2017-Nov-16 14:56 UTC. Time now 2017-Nov-21 13:54 UTC.
Position N 43°49' W 004°56'.

Length 16 m.

Type: Fishing. MMSI: 224027890.

Date/timePositionNaut miles runAvg speedWind from/ knotsBaromVisibWave heightAir tempDewpointWater temp
2017-Nov-16 14:56N 43°49' W 004°56'0 1.1
2017-Nov-16 14:30N 43°48' W 004°55'1 0.7
2017-Nov-16 13:37N 43°48' W 004°54'0 0.2
2017-Nov-16 13:29N 43°48' W 004°54'3 2.4
2017-Nov-16 12:15N 43°45' W 004°53'26 1.0
2017-Nov-15 10:27N 43°29' W 004°25'3 5.6
2017-Nov-15 09:56N 43°30' W 004°22'12 0.9
2017-Nov-14 21:12N 43°34' W 004°06'2 7.6
2017-Nov-14 20:53N 43°35' W 004°03'0 0.2
2017-Nov-14 20:30N 43°35' W 004°03'  

Dump ship's entire track history